TGZ2775 LFMN-LFPG
Flight info
| Callsign | TGZ2775 |
|---|---|
| Flight time | 1h 5m |
| Altitude | 36000 |
| Route | OKTET UM733 IDAVO DCT PIBAT |
| Aircraft | B738/M-SDRWY/S |
Departure
| Time | 2026-05-07 04:48 |
|---|---|
| Airport | Nice-Côte d'Azur Airport (LFMN) |
Arrival
| Time | 2026-05-07 05:53 |
|---|---|
| Airport | Charles de Gaulle International Airport (LFPG) |
| Time | Latitude | Longitude | Altitude | Speed | Heading |
|---|---|---|---|---|---|
| 2026-05-07 04:28 | 43.65892 | 7.20669 | 11 ft | 0 kts | 315° |
| 2026-05-07 04:40 | 43.65882 | 7.20682 | 11 ft | 2 kts | 315° |
| 2026-05-07 04:41 | 43.65870 | 7.20698 | 15 ft | 2 kts | 315° |
| 2026-05-07 04:41 | 43.65858 | 7.20714 | 11 ft | 2 kts | 328° |
| 2026-05-07 04:41 | 43.65844 | 7.20721 | 15 ft | 1 kts | 32° |
| 2026-05-07 04:41 | 43.65838 | 7.20715 | 12 ft | 0 kts | 47° |
| 2026-05-07 04:43 | 43.65842 | 7.20722 | 14 ft | 4 kts | 48° |
| 2026-05-07 04:44 | 43.65866 | 7.20788 | 11 ft | 11 kts | 78° |
| 2026-05-07 04:44 | 43.65836 | 7.20855 | 11 ft | 8 kts | 160° |
| 2026-05-07 04:44 | 43.65794 | 7.20894 | 11 ft | 8 kts | 109° |
| 2026-05-07 04:44 | 43.65825 | 7.20972 | 12 ft | 14 kts | 46° |
| 2026-05-07 04:45 | 43.65926 | 7.21112 | 12 ft | 26 kts | 45° |
| 2026-05-07 04:45 | 43.66075 | 7.21318 | 11 ft | 34 kts | 45° |
| 2026-05-07 04:45 | 43.66263 | 7.21575 | 11 ft | 40 kts | 44° |
| 2026-05-07 04:45 | 43.66438 | 7.21811 | 11 ft | 29 kts | 44° |
| 2026-05-07 04:46 | 43.66543 | 7.21963 | 11 ft | 21 kts | 45° |
| 2026-05-07 04:46 | 43.66646 | 7.22108 | 11 ft | 21 kts | 45° |
| 2026-05-07 04:46 | 43.66746 | 7.22241 | 11 ft | 20 kts | 40° |
| 2026-05-07 04:46 | 43.66814 | 7.22387 | 11 ft | 18 kts | 105° |
| 2026-05-07 04:47 | 43.66727 | 7.22498 | 14 ft | 17 kts | 176° |
| 2026-05-07 04:47 | 43.66668 | 7.22450 | 15 ft | 6 kts | 227° |
| 2026-05-07 04:47 | 43.66400 | 7.22058 | 16 ft | 106 kts | 225° |
| 2026-05-07 04:47 | 43.65664 | 7.21056 | 65 ft | 185 kts | 226° |
| 2026-05-07 04:48 | 43.64681 | 7.19732 | 919 ft | 202 kts | 226° |
| 2026-05-07 04:48 | 43.63667 | 7.18285 | 1914 ft | 220 kts | 228° |
| 2026-05-07 04:48 | 43.62585 | 7.16684 | 2528 ft | 237 kts | 227° |
| 2026-05-07 04:48 | 43.61256 | 7.15347 | 3442 ft | 241 kts | 200° |
| 2026-05-07 04:49 | 43.59590 | 7.15300 | 4352 ft | 247 kts | 163° |
| 2026-05-07 04:49 | 43.58067 | 7.16396 | 5293 ft | 248 kts | 152° |
| 2026-05-07 04:49 | 43.56578 | 7.17632 | 6208 ft | 249 kts | 154° |
| 2026-05-07 04:49 | 43.54950 | 7.18258 | 7072 ft | 244 kts | 185° |
| 2026-05-07 04:50 | 43.53303 | 7.17817 | 7993 ft | 242 kts | 204° |
| 2026-05-07 04:50 | 43.51949 | 7.16482 | 8889 ft | 245 kts | 230° |
| 2026-05-07 04:50 | 43.51157 | 7.14364 | 9693 ft | 257 kts | 255° |
| 2026-05-07 04:50 | 43.51137 | 7.11850 | 10453 ft | 273 kts | 277° |
| 2026-05-07 04:51 | 43.51618 | 7.09261 | 11218 ft | 285 kts | 284° |
| 2026-05-07 04:51 | 43.52695 | 7.06877 | 11963 ft | 308 kts | 313° |
| 2026-05-07 04:51 | 43.54554 | 7.05256 | 12772 ft | 327 kts | 332° |
| 2026-05-07 04:51 | 43.56706 | 7.04087 | 13599 ft | 339 kts | 335° |
| 2026-05-07 04:52 | 43.58930 | 7.02984 | 14320 ft | 349 kts | 336° |
| 2026-05-07 04:52 | 43.61260 | 7.01852 | 15076 ft | 359 kts | 336° |
| 2026-05-07 04:52 | 43.63651 | 7.00686 | 15847 ft | 369 kts | 336° |
| 2026-05-07 04:52 | 43.66092 | 6.99481 | 16630 ft | 377 kts | 335° |
| 2026-05-07 04:53 | 43.68589 | 6.98234 | 17424 ft | 385 kts | 335° |
| 2026-05-07 04:53 | 43.71140 | 6.96947 | 18061 ft | 398 kts | 335° |
| 2026-05-07 04:53 | 43.73785 | 6.95601 | 18561 ft | 411 kts | 335° |
| 2026-05-07 04:53 | 43.76492 | 6.94220 | 19165 ft | 419 kts | 334° |
| 2026-05-07 04:54 | 43.79237 | 6.92820 | 19857 ft | 422 kts | 334° |
| 2026-05-07 04:54 | 43.82007 | 6.91405 | 20595 ft | 427 kts | 333° |
| 2026-05-07 04:54 | 43.84813 | 6.89969 | 21275 ft | 432 kts | 333° |
| 2026-05-07 04:54 | 43.87646 | 6.88516 | 21934 ft | 437 kts | 332° |
| 2026-05-07 04:55 | 43.90513 | 6.87044 | 22574 ft | 442 kts | 332° |
| 2026-05-07 04:55 | 43.93413 | 6.85552 | 23241 ft | 446 kts | 332° |
| 2026-05-07 04:55 | 43.96334 | 6.84049 | 23813 ft | 451 kts | 331° |
| 2026-05-07 04:55 | 43.99298 | 6.82522 | 24359 ft | 454 kts | 331° |
| 2026-05-07 04:56 | 44.02268 | 6.80992 | 24921 ft | 457 kts | 332° |
| 2026-05-07 04:56 | 44.05289 | 6.79434 | 25376 ft | 462 kts | 332° |
| 2026-05-07 04:56 | 44.08315 | 6.77871 | 25844 ft | 465 kts | 332° |
| 2026-05-07 04:56 | 44.11360 | 6.76297 | 26302 ft | 469 kts | 332° |
| 2026-05-07 04:57 | 44.14392 | 6.74727 | 26735 ft | 472 kts | 332° |
| 2026-05-07 04:57 | 44.17484 | 6.73124 | 27168 ft | 476 kts | 332° |
| 2026-05-07 04:57 | 44.20602 | 6.71507 | 27598 ft | 479 kts | 332° |
| 2026-05-07 04:57 | 44.23742 | 6.69875 | 28018 ft | 482 kts | 332° |
| 2026-05-07 04:58 | 44.26905 | 6.68229 | 28433 ft | 486 kts | 332° |
| 2026-05-07 04:58 | 44.30081 | 6.66576 | 28863 ft | 489 kts | 332° |
| 2026-05-07 04:58 | 44.33282 | 6.64908 | 29287 ft | 492 kts | 332° |
| 2026-05-07 04:58 | 44.36496 | 6.63232 | 29691 ft | 495 kts | 332° |
| 2026-05-07 04:59 | 44.39422 | 6.61703 | 30036 ft | 497 kts | 332° |
| 2026-05-07 04:59 | 44.42665 | 6.60009 | 30457 ft | 496 kts | 333° |
| 2026-05-07 04:59 | 44.45900 | 6.58317 | 30927 ft | 494 kts | 333° |
| 2026-05-07 04:59 | 44.49056 | 6.56492 | 31375 ft | 488 kts | 326° |
| 2026-05-07 05:00 | 44.51976 | 6.54148 | 31823 ft | 481 kts | 321° |
| 2026-05-07 05:00 | 44.54766 | 6.51684 | 32271 ft | 479 kts | 320° |
| 2026-05-07 05:00 | 44.57567 | 6.49154 | 32734 ft | 478 kts | 320° |
| 2026-05-07 05:00 | 44.60362 | 6.46619 | 33157 ft | 477 kts | 321° |
| 2026-05-07 05:01 | 44.63159 | 6.44094 | 33560 ft | 478 kts | 320° |
| 2026-05-07 05:01 | 44.65966 | 6.41579 | 33949 ft | 478 kts | 320° |
| 2026-05-07 05:01 | 44.68768 | 6.39084 | 34376 ft | 476 kts | 320° |
| 2026-05-07 05:01 | 44.71572 | 6.36596 | 34805 ft | 475 kts | 321° |
| 2026-05-07 05:02 | 44.74364 | 6.34122 | 35252 ft | 473 kts | 321° |
| 2026-05-07 05:02 | 44.77145 | 6.31657 | 35616 ft | 472 kts | 321° |
| 2026-05-07 05:02 | 44.79928 | 6.29186 | 35951 ft | 472 kts | 321° |
| 2026-05-07 05:02 | 44.82718 | 6.26702 | 36006 ft | 475 kts | 321° |
| 2026-05-07 05:03 | 44.88267 | 6.21755 | 36009 ft | 474 kts | 321° |
| 2026-05-07 05:03 | 44.93830 | 6.16787 | 35993 ft | 472 kts | 321° |
| 2026-05-07 05:04 | 44.99361 | 6.11841 | 36024 ft | 469 kts | 321° |
| 2026-05-07 05:04 | 45.04882 | 6.06878 | 36027 ft | 471 kts | 322° |
| 2026-05-07 05:05 | 45.10454 | 6.01859 | 36009 ft | 476 kts | 322° |
| 2026-05-07 05:05 | 45.16046 | 5.96814 | 36011 ft | 478 kts | 322° |
| 2026-05-07 05:06 | 45.21630 | 5.91768 | 36010 ft | 479 kts | 322° |
| 2026-05-07 05:06 | 45.27252 | 5.86676 | 36000 ft | 479 kts | 322° |
| 2026-05-07 05:07 | 45.32874 | 5.81570 | 36003 ft | 479 kts | 322° |
| 2026-05-07 05:07 | 45.38497 | 5.76451 | 36010 ft | 479 kts | 322° |
| 2026-05-07 05:08 | 45.44099 | 5.71338 | 35994 ft | 478 kts | 322° |
| 2026-05-07 05:08 | 45.49697 | 5.66217 | 36022 ft | 477 kts | 323° |
| 2026-05-07 05:09 | 45.55252 | 5.61127 | 36003 ft | 466 kts | 322° |
| 2026-05-07 05:09 | 45.60604 | 5.56204 | 36003 ft | 457 kts | 321° |
| 2026-05-07 05:10 | 45.65756 | 5.50923 | 36018 ft | 454 kts | 318° |
| 2026-05-07 05:10 | 45.70763 | 5.45500 | 36020 ft | 454 kts | 318° |
| 2026-05-07 05:11 | 45.75813 | 5.40056 | 36020 ft | 455 kts | 319° |
| 2026-05-07 05:11 | 45.80885 | 5.34634 | 36020 ft | 455 kts | 319° |
| 2026-05-07 05:12 | 45.85972 | 5.29210 | 36016 ft | 455 kts | 319° |
| 2026-05-07 05:12 | 45.91050 | 5.23785 | 36020 ft | 455 kts | 319° |
| 2026-05-07 05:13 | 45.96126 | 5.18347 | 36018 ft | 455 kts | 319° |
| 2026-05-07 05:13 | 46.01204 | 5.12894 | 36016 ft | 455 kts | 319° |
| 2026-05-07 05:14 | 46.06267 | 5.07444 | 36013 ft | 454 kts | 319° |
| 2026-05-07 05:14 | 46.11335 | 5.01975 | 36010 ft | 454 kts | 319° |
| 2026-05-07 05:15 | 46.16388 | 4.96510 | 36013 ft | 454 kts | 319° |
| 2026-05-07 05:15 | 46.20580 | 4.91966 | 36014 ft | 453 kts | 320° |
| 2026-05-07 05:16 | 46.26429 | 4.85610 | 36015 ft | 452 kts | 320° |
| 2026-05-07 05:16 | 46.30610 | 4.81058 | 36017 ft | 452 kts | 320° |
| 2026-05-07 05:17 | 46.35629 | 4.75579 | 36020 ft | 452 kts | 320° |
| 2026-05-07 05:17 | 46.40652 | 4.70084 | 36020 ft | 451 kts | 320° |
| 2026-05-07 05:18 | 46.45661 | 4.64592 | 36020 ft | 451 kts | 320° |
| 2026-05-07 05:18 | 46.50634 | 4.59125 | 36020 ft | 450 kts | 320° |
| 2026-05-07 05:19 | 46.55621 | 4.53631 | 36024 ft | 449 kts | 320° |
| 2026-05-07 05:19 | 46.60593 | 4.48140 | 36018 ft | 448 kts | 320° |
| 2026-05-07 05:20 | 46.65564 | 4.42637 | 36022 ft | 448 kts | 320° |
| 2026-05-07 05:20 | 46.70500 | 4.37159 | 36032 ft | 452 kts | 320° |
| 2026-05-07 05:21 | 46.78180 | 4.28609 | 36040 ft | 472 kts | 320° |
| 2026-05-07 05:22 | 46.83761 | 4.23469 | 36025 ft | 476 kts | 335° |
| 2026-05-07 05:22 | 46.89839 | 4.19971 | 35990 ft | 468 kts | 337° |
| 2026-05-07 05:22 | 46.92852 | 4.18307 | 36013 ft | 455 kts | 338° |
| 2026-05-07 05:23 | 46.95786 | 4.16671 | 36013 ft | 449 kts | 337° |
| 2026-05-07 05:23 | 47.01606 | 4.13348 | 36025 ft | 449 kts | 337° |
| 2026-05-07 05:24 | 47.07427 | 4.09962 | 36027 ft | 450 kts | 336° |
| 2026-05-07 05:24 | 47.13252 | 4.06555 | 36025 ft | 451 kts | 336° |
| 2026-05-07 05:25 | 47.19095 | 4.03131 | 36024 ft | 452 kts | 336° |
| 2026-05-07 05:25 | 47.24908 | 3.99719 | 36023 ft | 453 kts | 336° |
| 2026-05-07 05:26 | 47.30774 | 3.96269 | 36019 ft | 454 kts | 336° |
| 2026-05-07 05:26 | 47.36643 | 3.92809 | 36025 ft | 454 kts | 336° |
| 2026-05-07 05:27 | 47.42535 | 3.89325 | 36025 ft | 459 kts | 337° |
| 2026-05-07 05:27 | 47.48482 | 3.85806 | 36022 ft | 461 kts | 338° |
| 2026-05-07 05:28 | 47.54734 | 3.83963 | 36028 ft | 464 kts | 356° |
| 2026-05-07 05:28 | 47.61194 | 3.84753 | 36025 ft | 466 kts | 5° |
| 2026-05-07 05:29 | 47.67551 | 3.85891 | 35710 ft | 451 kts | 5° |
| 2026-05-07 05:29 | 47.70635 | 3.86443 | 35336 ft | 442 kts | 5° |
| 2026-05-07 05:29 | 47.73664 | 3.86985 | 34951 ft | 434 kts | 5° |
| 2026-05-07 05:29 | 47.76637 | 3.87518 | 34541 ft | 428 kts | 5° |
| 2026-05-07 05:30 | 47.79576 | 3.88046 | 34078 ft | 423 kts | 6° |
| 2026-05-07 05:30 | 47.82486 | 3.88569 | 33536 ft | 419 kts | 6° |
| 2026-05-07 05:30 | 47.85367 | 3.89088 | 32991 ft | 415 kts | 6° |
| 2026-05-07 05:30 | 47.88225 | 3.89603 | 32455 ft | 411 kts | 6° |
| 2026-05-07 05:31 | 47.91020 | 3.90108 | 31934 ft | 408 kts | 6° |
| 2026-05-07 05:31 | 47.93820 | 3.90614 | 31419 ft | 404 kts | 6° |
| 2026-05-07 05:31 | 47.96598 | 3.91117 | 30912 ft | 400 kts | 6° |
| 2026-05-07 05:31 | 47.99358 | 3.91617 | 30414 ft | 397 kts | 6° |
| 2026-05-07 05:32 | 48.02084 | 3.92112 | 29893 ft | 394 kts | 6° |
| 2026-05-07 05:32 | 48.04799 | 3.92605 | 29302 ft | 390 kts | 6° |
| 2026-05-07 05:32 | 48.07480 | 3.93093 | 28747 ft | 386 kts | 6° |
| 2026-05-07 05:32 | 48.10136 | 3.93576 | 28188 ft | 383 kts | 6° |
| 2026-05-07 05:33 | 48.12768 | 3.94056 | 27648 ft | 380 kts | 6° |
| 2026-05-07 05:33 | 48.15385 | 3.94533 | 27110 ft | 377 kts | 6° |
| 2026-05-07 05:33 | 48.17949 | 3.95001 | 26595 ft | 374 kts | 6° |
| 2026-05-07 05:33 | 48.20524 | 3.95472 | 26083 ft | 372 kts | 6° |
| 2026-05-07 05:34 | 48.23093 | 3.95877 | 25489 ft | 371 kts | 360° |
| 2026-05-07 05:34 | 48.25652 | 3.95473 | 24898 ft | 370 kts | 345° |
| 2026-05-07 05:34 | 48.28069 | 3.94194 | 24326 ft | 368 kts | 332° |
| 2026-05-07 05:34 | 48.30242 | 3.92181 | 23761 ft | 367 kts | 324° |
| 2026-05-07 05:35 | 48.32333 | 3.89998 | 23134 ft | 367 kts | 323° |
| 2026-05-07 05:35 | 48.34415 | 3.87776 | 22474 ft | 366 kts | 323° |
| 2026-05-07 05:35 | 48.36493 | 3.85556 | 21829 ft | 365 kts | 323° |
| 2026-05-07 05:35 | 48.38566 | 3.83354 | 21205 ft | 364 kts | 323° |
| 2026-05-07 05:36 | 48.40637 | 3.81167 | 20591 ft | 363 kts | 323° |
| 2026-05-07 05:36 | 48.42705 | 3.78991 | 19986 ft | 362 kts | 323° |
| 2026-05-07 05:36 | 48.44772 | 3.76823 | 19394 ft | 360 kts | 323° |
| 2026-05-07 05:36 | 48.46828 | 3.74666 | 18813 ft | 359 kts | 324° |
| 2026-05-07 05:37 | 48.48850 | 3.72547 | 18221 ft | 358 kts | 324° |
| 2026-05-07 05:37 | 48.50893 | 3.70402 | 17521 ft | 357 kts | 324° |
| 2026-05-07 05:37 | 48.52926 | 3.68266 | 16954 ft | 353 kts | 324° |
| 2026-05-07 05:37 | 48.54925 | 3.66165 | 16468 ft | 348 kts | 324° |
| 2026-05-07 05:38 | 48.56897 | 3.64090 | 15975 ft | 343 kts | 324° |
| 2026-05-07 05:38 | 48.58840 | 3.62044 | 15494 ft | 339 kts | 324° |
| 2026-05-07 05:38 | 48.60767 | 3.60012 | 15018 ft | 335 kts | 324° |
| 2026-05-07 05:38 | 48.62669 | 3.58004 | 14553 ft | 331 kts | 324° |
| 2026-05-07 05:39 | 48.64550 | 3.56017 | 14097 ft | 328 kts | 324° |
| 2026-05-07 05:39 | 48.66416 | 3.54044 | 13620 ft | 325 kts | 324° |
| 2026-05-07 05:39 | 48.68264 | 3.52088 | 13101 ft | 323 kts | 324° |
| 2026-05-07 05:39 | 48.70087 | 3.50129 | 12600 ft | 320 kts | 321° |
| 2026-05-07 05:40 | 48.71748 | 3.47916 | 12156 ft | 316 kts | 315° |
| 2026-05-07 05:40 | 48.73298 | 3.45595 | 11774 ft | 311 kts | 314° |
| 2026-05-07 05:40 | 48.74805 | 3.43281 | 11397 ft | 306 kts | 314° |
| 2026-05-07 05:40 | 48.76291 | 3.41004 | 11017 ft | 302 kts | 314° |
| 2026-05-07 05:41 | 48.77763 | 3.38766 | 10650 ft | 298 kts | 314° |
| 2026-05-07 05:41 | 48.79225 | 3.36559 | 10281 ft | 295 kts | 314° |
| 2026-05-07 05:41 | 48.80652 | 3.34415 | 9907 ft | 291 kts | 314° |
| 2026-05-07 05:41 | 48.82089 | 3.32263 | 9520 ft | 289 kts | 314° |
| 2026-05-07 05:42 | 48.83512 | 3.30134 | 9118 ft | 286 kts | 315° |
| 2026-05-07 05:42 | 48.84925 | 3.28022 | 8743 ft | 283 kts | 315° |
| 2026-05-07 05:42 | 48.86315 | 3.25944 | 8460 ft | 278 kts | 315° |
| 2026-05-07 05:42 | 48.87680 | 3.23902 | 8171 ft | 273 kts | 315° |
| 2026-05-07 05:43 | 48.89021 | 3.21897 | 7884 ft | 269 kts | 315° |
| 2026-05-07 05:43 | 48.90342 | 3.19920 | 7603 ft | 265 kts | 315° |
| 2026-05-07 05:43 | 48.91644 | 3.17968 | 7325 ft | 262 kts | 315° |
| 2026-05-07 05:43 | 48.92938 | 3.16030 | 7055 ft | 259 kts | 315° |
| 2026-05-07 05:44 | 48.94211 | 3.14120 | 6776 ft | 256 kts | 315° |
| 2026-05-07 05:44 | 48.95471 | 3.12227 | 6504 ft | 253 kts | 315° |
| 2026-05-07 05:44 | 48.96720 | 3.10351 | 6224 ft | 251 kts | 315° |
| 2026-05-07 05:44 | 48.97954 | 3.08496 | 5989 ft | 247 kts | 315° |
| 2026-05-07 05:45 | 48.99161 | 3.06680 | 5798 ft | 241 kts | 315° |
| 2026-05-07 05:45 | 49.00343 | 3.04901 | 5612 ft | 236 kts | 315° |
| 2026-05-07 05:45 | 49.01500 | 3.03159 | 5422 ft | 232 kts | 315° |
| 2026-05-07 05:45 | 49.02619 | 3.01472 | 5263 ft | 226 kts | 315° |
| 2026-05-07 05:46 | 49.03738 | 2.99783 | 5106 ft | 221 kts | 315° |
| 2026-05-07 05:46 | 49.04594 | 2.97974 | 5008 ft | 209 kts | 285° |
| 2026-05-07 05:46 | 49.04595 | 2.95990 | 5021 ft | 194 kts | 263° |
| 2026-05-07 05:46 | 49.04423 | 2.93966 | 5015 ft | 191 kts | 264° |
| 2026-05-07 05:47 | 49.04307 | 2.91980 | 5020 ft | 185 kts | 266° |
| 2026-05-07 05:47 | 49.04200 | 2.90022 | 4842 ft | 185 kts | 266° |
| 2026-05-07 05:47 | 49.04094 | 2.88115 | 4610 ft | 174 kts | 266° |
| 2026-05-07 05:47 | 49.03993 | 2.86345 | 4402 ft | 160 kts | 266° |
| 2026-05-07 05:48 | 49.03899 | 2.84673 | 4156 ft | 152 kts | 266° |
| 2026-05-07 05:48 | 49.03811 | 2.83129 | 3947 ft | 140 kts | 266° |
| 2026-05-07 05:48 | 49.03729 | 2.81667 | 3692 ft | 141 kts | 266° |
| 2026-05-07 05:48 | 49.03658 | 2.80143 | 3309 ft | 151 kts | 267° |
| 2026-05-07 05:49 | 49.03544 | 2.78537 | 3298 ft | 149 kts | 262° |
| 2026-05-07 05:49 | 49.03371 | 2.77062 | 3237 ft | 138 kts | 263° |
| 2026-05-07 05:49 | 49.03244 | 2.75567 | 2897 ft | 144 kts | 266° |
| 2026-05-07 05:49 | 49.03172 | 2.74045 | 2667 ft | 143 kts | 270° |
| 2026-05-07 05:50 | 49.03137 | 2.72543 | 2422 ft | 141 kts | 270° |
| 2026-05-07 05:50 | 49.03110 | 2.71047 | 2219 ft | 141 kts | 270° |
| 2026-05-07 05:50 | 49.03068 | 2.69586 | 2032 ft | 138 kts | 268° |
| 2026-05-07 05:50 | 49.02995 | 2.68116 | 1807 ft | 140 kts | 266° |
| 2026-05-07 05:51 | 49.02900 | 2.66627 | 1635 ft | 141 kts | 265° |
| 2026-05-07 05:51 | 49.02812 | 2.65136 | 1455 ft | 141 kts | 266° |
| 2026-05-07 05:51 | 49.02749 | 2.63796 | 1313 ft | 136 kts | 268° |
| 2026-05-07 05:51 | 49.02697 | 2.62333 | 1096 ft | 140 kts | 268° |
| 2026-05-07 05:52 | 49.02614 | 2.60877 | 967 ft | 136 kts | 265° |
| 2026-05-07 05:52 | 49.02514 | 2.59445 | 803 ft | 136 kts | 264° |
| 2026-05-07 05:52 | 49.02421 | 2.58020 | 596 ft | 134 kts | 266° |
| 2026-05-07 05:52 | 49.02346 | 2.56634 | 411 ft | 128 kts | 266° |
| 2026-05-07 05:53 | 49.02281 | 2.55352 | 354 ft | 111 kts | 265° |
| 2026-05-07 05:53 | 49.02229 | 2.54361 | 358 ft | 65 kts | 265° |
| 2026-05-07 05:53 | 49.02197 | 2.53816 | 353 ft | 37 kts | 265° |
| 2026-05-07 05:53 | 49.02159 | 2.53499 | 357 ft | 17 kts | 251° |
| 2026-05-07 05:54 | 49.02135 | 2.53458 | 357 ft | 1 kts | 177° |
| 2026-05-07 05:54 | 49.02128 | 2.53473 | 356 ft | 5 kts | 116° |
| 2026-05-07 05:54 | 49.02115 | 2.53551 | 361 ft | 9 kts | 104° |
| 2026-05-07 05:54 | 49.02098 | 2.53653 | 356 ft | 12 kts | 104° |
| 2026-05-07 05:55 | 49.02069 | 2.53816 | 359 ft | 21 kts | 107° |
| 2026-05-07 05:55 | 49.02023 | 2.54050 | 355 ft | 24 kts | 107° |
| 2026-05-07 05:55 | 49.01991 | 2.54258 | 359 ft | 19 kts | 125° |
| 2026-05-07 05:55 | 49.01877 | 2.54326 | 354 ft | 18 kts | 176° |
| 2026-05-07 05:56 | 49.01791 | 2.54298 | 357 ft | 10 kts | 223° |
| 2026-05-07 05:56 | 49.01736 | 2.54210 | 355 ft | 13 kts | 228° |
| 2026-05-07 05:56 | 49.01728 | 2.54197 | 357 ft | 0 kts | 228° |